createdAt,value
2022-10-05T00:00:59.356Z,94001.31
2022-10-05T00:03:34.775Z,94003.44
2022-10-05T00:06:02.951Z,94003.72
2022-10-05T00:08:37.840Z,94005.59
2022-10-05T00:11:10.552Z,94008.56
2022-10-05T00:13:39.154Z,94013.91
2022-10-05T00:16:13.320Z,94013.31
2022-10-05T00:18:42.302Z,94002.59
2022-10-05T00:21:24.319Z,94004.97
2022-10-05T00:23:54.166Z,94004.69
2022-10-05T00:26:25.336Z,94010.88
2022-10-05T00:28:56.018Z,94006.56
2022-10-05T00:31:27.899Z,93999.06
2022-10-05T00:33:57.604Z,94008.16
2022-10-05T00:36:27.154Z,94008.38
2022-10-05T00:38:56.944Z,94000.81
2022-10-05T00:41:56.813Z,94000.75
2022-10-05T00:44:50.926Z,94017.69
2022-10-05T00:47:58.714Z,94002.44
2022-10-05T00:50:32.546Z,94001.22
2022-10-05T00:53:06.619Z,93996.66
2022-10-05T00:55:43.837Z,94001.19
2022-10-05T00:58:17.684Z,94004.63
2022-10-05T01:01:12.740Z,93996.59
2022-10-05T01:04:00.390Z,94008.09
2022-10-05T01:06:58.499Z,94016.84
2022-10-05T01:10:02.360Z,94023.84
2022-10-05T01:12:33.970Z,94020.03
2022-10-05T01:15:14.571Z,94023.78
2022-10-05T01:18:02.102Z,94019.28
2022-10-05T01:20:42.385Z,94027.66
2022-10-05T01:23:35.779Z,94027.41
2022-10-05T01:26:23.199Z,94033.63
2022-10-05T01:29:17.819Z,94035.66
2022-10-05T01:32:04.249Z,94033.13
2022-10-05T01:34:56.123Z,94028.78
2022-10-05T01:37:47.450Z,94026.03
2022-10-05T01:40:40.667Z,94020.06
2022-10-05T01:43:23.421Z,94022.31
2022-10-05T01:46:12.047Z,94032.47
2022-10-05T01:48:48.488Z,94033.44
2022-10-05T01:51:45.949Z,94038.44
2022-10-05T01:54:44.137Z,94039.50
2022-10-05T01:57:19.519Z,94040.72
2022-10-05T02:00:19.291Z,94033.94
2022-10-05T02:03:01.307Z,94044.34
2022-10-05T02:05:55.069Z,94052.47
2022-10-05T02:08:40.205Z,94054.31
2022-10-05T02:11:14.395Z,94071.13
2022-10-05T02:14:23.119Z,94082.34
2022-10-05T02:16:55.517Z,94080.81
2022-10-05T02:19:43.255Z,94086.47
2022-10-05T02:22:23.399Z,94092.34
2022-10-05T02:25:06.939Z,94091.78
2022-10-05T02:27:42.121Z,94084.56
2022-10-05T02:30:16.251Z,94085.38
2022-10-05T02:32:55.703Z,94074.88
2022-10-05T02:35:24.759Z,94080.13
2022-10-05T02:38:14.555Z,94081.00
2022-10-05T02:41:00.494Z,94081.97
2022-10-05T02:44:00.791Z,94076.41
2022-10-05T02:46:56.144Z,94087.16
2022-10-05T02:49:34.418Z,94084.25
2022-10-05T02:52:08.350Z,94092.66
2022-10-05T02:54:48.768Z,94093.53
2022-10-05T02:57:32.884Z,94101.53
2022-10-05T03:00:21.613Z,94088.47
2022-10-05T03:02:56.389Z,94085.25
2022-10-05T03:05:35.657Z,94093.16
2022-10-05T03:08:11.315Z,94098.94
2022-10-05T03:10:51.450Z,94101.53
2022-10-05T03:13:38.498Z,94091.84
2022-10-05T03:16:37.682Z,94090.16
2022-10-05T03:19:47.182Z,94097.00
2022-10-05T03:22:15.676Z,94092.47
2022-10-05T03:25:11.522Z,94089.00
2022-10-05T03:27:49.757Z,94091.91
2022-10-05T03:30:24.750Z,94097.69
2022-10-05T03:33:08.138Z,94095.38
2022-10-05T03:35:46.464Z,94109.72
2022-10-05T03:38:32.285Z,94103.06
2022-10-05T03:41:12.409Z,94118.31
2022-10-05T03:44:04.118Z,94114.28
2022-10-05T03:47:03.388Z,94117.25
2022-10-05T03:49:48.623Z,94106.13
2022-10-05T03:52:26.321Z,94103.00
2022-10-05T03:55:04.859Z,94117.66
2022-10-05T03:57:40.270Z,94102.56
2022-10-05T04:00:21.945Z,94110.69
2022-10-05T04:03:00.446Z,94119.28
2022-10-05T04:05:55.457Z,94118.44
2022-10-05T04:08:48.073Z,94120.34
2022-10-05T04:11:27.970Z,94130.63
2022-10-05T04:14:33.707Z,94130.94
2022-10-05T04:17:15.513Z,94134.59
2022-10-05T04:19:56.383Z,94135.03
2022-10-05T04:22:31.731Z,94123.47
2022-10-05T04:25:18.367Z,94121.38
2022-10-05T04:27:56.618Z,94138.94
2022-10-05T04:30:25.161Z,94154.22
2022-10-05T04:32:58.874Z,94149.38
2022-10-05T04:36:11.744Z,94142.84
2022-10-05T04:39:09.624Z,94155.75
2022-10-05T04:41:56.695Z,94154.25
2022-10-05T04:45:02.876Z,94154.38
2022-10-05T04:47:58.780Z,94162.38
2022-10-05T04:50:27.254Z,94168.06
2022-10-05T04:53:24.813Z,94168.97
2022-10-05T04:56:42.057Z,94178.31
2022-10-05T04:59:22.367Z,94175.53
2022-10-05T05:02:18.168Z,94176.25
2022-10-05T05:05:08.694Z,94175.44
2022-10-05T05:08:13.810Z,94174.63
2022-10-05T05:11:17.419Z,94175.66
2022-10-05T05:13:47.578Z,94168.47
2022-10-05T05:16:22.103Z,94183.78
2022-10-05T05:19:04.912Z,94185.75
2022-10-05T05:21:53.039Z,94179.66
2022-10-05T05:24:26.555Z,94181.25
2022-10-05T05:27:31.358Z,94185.88
2022-10-05T05:30:10.138Z,94195.34
2022-10-05T05:32:51.866Z,94196.19
2022-10-05T05:35:57.225Z,94193.56
2022-10-05T05:38:40.894Z,94203.94
2022-10-05T05:41:13.428Z,94202.19
2022-10-05T05:44:09.885Z,94214.47
2022-10-05T05:47:04.944Z,94213.78
2022-10-05T05:49:43.646Z,94221.81
2022-10-05T05:52:30.561Z,94226.22
2022-10-05T05:55:05.878Z,94228.44
2022-10-05T05:57:44.854Z,94235.56
2022-10-05T06:00:16.574Z,94245.31
2022-10-05T06:02:56.084Z,94246.13
2022-10-05T06:05:43.031Z,94239.28
2022-10-05T06:08:28.795Z,94224.81
2022-10-05T06:11:02.938Z,94217.75
2022-10-05T06:13:43.582Z,94228.53
2022-10-05T06:16:16.502Z,94230.88
2022-10-05T06:18:49.366Z,94227.66
2022-10-05T06:21:41.084Z,94233.19
2022-10-05T06:25:06.206Z,94235.59
2022-10-05T06:27:39.237Z,94232.34
2022-10-05T06:30:26.507Z,94237.53
2022-10-05T06:33:03.605Z,94248.09
2022-10-05T06:35:38.283Z,94244.97
2022-10-05T06:38:40.250Z,94243.03
2022-10-05T06:41:39.286Z,94241.50
2022-10-05T06:44:34.931Z,94241.31
2022-10-05T06:47:29.018Z,94237.50
2022-10-05T06:50:27.641Z,94230.69
2022-10-05T06:53:23.606Z,94235.13
2022-10-05T06:56:21.546Z,94237.56
2022-10-05T06:59:08.731Z,94240.75
2022-10-05T07:01:50.489Z,94239.38
2022-10-05T07:04:40.222Z,94246.06
2022-10-05T07:07:40.315Z,94252.66
2022-10-05T07:10:23.705Z,94254.19
2022-10-05T07:13:50.488Z,94255.66
2022-10-05T07:16:38.252Z,94247.25
2022-10-05T07:19:12.257Z,94261.09
2022-10-05T07:22:01.591Z,94259.56
2022-10-05T07:25:03.096Z,94261.94
2022-10-05T07:27:36.603Z,94260.25
2022-10-05T07:30:05.821Z,94257.50
2022-10-05T07:32:36.479Z,94259.94
2022-10-05T07:35:48.187Z,94256.63
2022-10-05T07:38:32.320Z,94258.91
2022-10-05T07:41:37.145Z,94262.09
2022-10-05T07:44:14.330Z,94257.97
2022-10-05T07:46:53.781Z,94262.06
2022-10-05T07:49:38.337Z,94262.59
2022-10-05T07:52:18.497Z,94268.38
2022-10-05T07:55:19.199Z,94265.00
2022-10-05T07:57:50.380Z,94263.84
2022-10-05T08:00:25.162Z,94266.94
2022-10-05T08:03:08.784Z,94262.97
2022-10-05T08:05:43.195Z,94266.72
2022-10-05T08:08:31.091Z,94269.00
2022-10-05T08:11:40.073Z,94267.22
2022-10-05T08:14:36.217Z,94272.94
2022-10-05T08:17:27.711Z,94268.22
2022-10-05T08:20:34.601Z,94263.50
2022-10-05T08:23:27.238Z,94267.41
2022-10-05T08:26:04.136Z,94268.22
2022-10-05T08:28:38.178Z,94275.59
2022-10-05T08:31:15.174Z,94276.41
2022-10-05T08:34:22.342Z,94291.28
2022-10-05T08:36:56.965Z,94292.53
2022-10-05T08:39:29.750Z,94287.69
2022-10-05T08:42:22.146Z,94292.25
2022-10-05T08:45:06.511Z,94287.84
2022-10-05T08:48:04.345Z,94292.19
2022-10-05T08:51:07.008Z,94287.78
2022-10-05T08:54:07.146Z,94298.22
2022-10-05T08:56:44.408Z,94286.09
2022-10-05T08:59:22.253Z,94292.84
2022-10-05T09:02:34.905Z,94296.16
2022-10-05T09:05:30.718Z,94285.41
2022-10-05T09:08:49.015Z,94283.22
2022-10-05T09:11:47.688Z,94274.88
2022-10-05T09:14:22.131Z,94274.31
2022-10-05T09:17:08.788Z,94275.56
2022-10-05T09:20:11.798Z,94270.63
2022-10-05T09:23:00.276Z,94269.00
2022-10-05T09:25:48.855Z,94278.78
2022-10-05T09:28:24.742Z,94290.78
2022-10-05T09:31:28.398Z,94288.56
2022-10-05T09:34:21.271Z,94282.69
2022-10-05T09:36:49.788Z,94297.84
2022-10-05T09:39:31.756Z,94291.50
2022-10-05T09:42:37.043Z,94292.00
2022-10-05T09:45:36.982Z,94292.06
2022-10-05T09:48:11.565Z,94294.56
2022-10-05T09:50:42.077Z,94303.53
2022-10-05T09:53:41.267Z,94300.50
2022-10-05T09:56:22.434Z,94296.03
2022-10-05T09:59:11.530Z,94303.97
2022-10-05T10:02:23.603Z,94291.75
2022-10-05T10:05:24.468Z,94301.81
2022-10-05T10:08:01.541Z,94303.66
2022-10-05T10:10:58.841Z,94305.88
2022-10-05T10:14:04.285Z,94303.50
2022-10-05T10:16:41.545Z,94303.06
2022-10-05T10:19:21.731Z,94308.19
2022-10-05T10:21:56.670Z,94304.31
2022-10-05T10:25:07.855Z,94325.31
2022-10-05T10:27:56.087Z,94335.53
2022-10-05T10:30:27.737Z,94323.16
2022-10-05T10:33:06.803Z,94321.94
2022-10-05T10:35:41.351Z,94318.91
2022-10-05T10:38:34.491Z,94325.00
2022-10-05T10:41:14.587Z,94327.06
2022-10-05T10:44:03.709Z,94320.72
2022-10-05T10:46:47.812Z,94334.38
2022-10-05T10:49:48.535Z,94343.75
2022-10-05T10:52:59.924Z,94339.09
2022-10-05T10:55:52.463Z,94339.50
2022-10-05T10:58:54.500Z,94344.22
2022-10-05T11:02:11.925Z,94346.66
2022-10-05T11:04:58.686Z,94355.00
2022-10-05T11:07:59.518Z,94353.16
2022-10-05T11:10:42.722Z,94349.50
2022-10-05T11:13:41.347Z,94355.66
2022-10-05T11:16:18.724Z,94357.91
2022-10-05T11:19:00.100Z,94362.81
2022-10-05T11:21:53.276Z,94362.00
2022-10-05T11:24:52.702Z,94360.63
2022-10-05T11:27:48.608Z,94351.44
2022-10-05T11:30:38.454Z,94354.13
2022-10-05T11:33:13.207Z,94360.06
2022-10-05T11:36:27.028Z,94362.09
2022-10-05T11:39:38.340Z,94368.19
2022-10-05T11:42:25.632Z,94362.94
2022-10-05T11:45:15.707Z,94365.59
2022-10-05T11:48:14.748Z,94359.72
2022-10-05T11:51:05.659Z,94372.75
2022-10-05T11:53:53.916Z,94371.53
2022-10-05T11:56:26.120Z,94377.66
2022-10-05T11:59:14.513Z,94387.81
2022-10-05T12:02:15.457Z,94392.06
2022-10-05T12:05:12.158Z,94391.25
2022-10-05T12:07:43.678Z,94395.53
2022-10-05T12:10:40.998Z,94392.50
2022-10-05T12:13:52.497Z,94386.22
2022-10-05T12:16:38.910Z,94388.03
2022-10-05T12:19:31.008Z,94392.75
2022-10-05T12:22:22.794Z,94410.22
2022-10-05T12:24:57.178Z,94402.91
2022-10-05T12:27:29.856Z,94399.63
2022-10-05T12:30:08.456Z,94413.88
2022-10-05T12:33:03.615Z,94408.78
2022-10-05T12:35:47.411Z,94415.50
2022-10-05T12:38:22.094Z,94420.16
2022-10-05T12:41:00.619Z,94421.59
2022-10-05T12:43:56.215Z,94427.28
2022-10-05T12:46:48.878Z,94437.03
2022-10-05T12:49:48.256Z,94424.44
2022-10-05T12:52:27.560Z,94422.00
2022-10-05T12:55:11.936Z,94419.16
2022-10-05T12:57:50.178Z,94425.47
2022-10-05T13:00:23.179Z,94433.38
2022-10-05T13:03:10.094Z,94427.28
2022-10-05T13:06:02.607Z,94427.69
2022-10-05T13:08:40.966Z,94423.44
2022-10-05T13:11:27.703Z,94419.78
2022-10-05T13:14:20.831Z,94423.22
2022-10-05T13:17:15.614Z,94430.94
2022-10-05T13:19:54.112Z,94436.66
2022-10-05T13:22:41.979Z,94442.13
2022-10-05T13:25:31.293Z,94450.47
2022-10-05T13:28:05.535Z,94447.44
2022-10-05T13:30:34.525Z,94452.91
2022-10-05T13:33:21.439Z,94458.41
2022-10-05T13:36:25.186Z,94454.13
2022-10-05T13:38:58.768Z,94457.00
2022-10-05T13:42:07.176Z,94461.47
2022-10-05T13:44:51.527Z,94456.78
2022-10-05T13:47:24.780Z,94457.41
2022-10-05T13:50:04.120Z,94470.81
2022-10-05T13:52:47.474Z,94469.59
2022-10-05T13:55:33.746Z,94470.19
2022-10-05T13:58:27.136Z,94461.06
2022-10-05T14:00:56.444Z,94469.59
2022-10-05T14:04:05.106Z,94468.56
2022-10-05T14:06:37.182Z,94473.66
2022-10-05T14:09:06.002Z,94475.69
2022-10-05T14:11:48.726Z,94480.34
2022-10-05T14:14:30.207Z,94481.38
2022-10-05T14:19:46.529Z,94496.81
2022-10-05T14:22:17.885Z,94499.25
2022-10-05T14:25:18.428Z,94502.72
2022-10-05T14:28:01.639Z,94504.13
2022-10-05T14:30:32.213Z,94505.34
2022-10-05T14:33:06.401Z,94497.63
2022-10-05T14:35:51.729Z,94500.88
2022-10-05T14:38:33.431Z,94513.06
2022-10-05T14:41:07.607Z,94522.63
2022-10-05T14:43:36.674Z,94511.03
2022-10-05T14:46:24.983Z,94517.94
2022-10-05T14:49:22.723Z,94522.41
2022-10-05T14:51:52.903Z,94528.50
2022-10-05T14:54:55.057Z,94540.69
2022-10-05T14:57:33.437Z,94549.66
2022-10-05T15:00:17.664Z,94548.81
2022-10-05T15:02:49.061Z,94549.03
2022-10-05T15:05:40.673Z,94557.75
2022-10-05T15:08:37.374Z,94560.19
2022-10-05T15:11:18.520Z,94563.03
2022-10-05T15:13:51.339Z,94575.25
2022-10-05T15:16:26.002Z,94576.84
2022-10-05T15:19:26.799Z,94570.97
2022-10-05T15:22:16.550Z,94569.53
2022-10-05T15:24:50.204Z,94570.34
2022-10-05T15:27:55.337Z,94575.44
2022-10-05T15:30:24.552Z,94575.03
2022-10-05T15:33:06.684Z,94584.38
2022-10-05T15:35:38.587Z,94588.44
2022-10-05T15:38:21.857Z,94581.34
2022-10-05T15:40:56.022Z,94590.06
2022-10-05T15:43:25.322Z,94605.06
2022-10-05T15:46:06.977Z,94603.00
2022-10-05T15:48:54.653Z,94604.81
2022-10-05T15:51:36.831Z,94620.69
2022-10-05T15:54:44.726Z,94619.88
2022-10-05T15:57:20.365Z,94630.22
2022-10-05T15:59:55.277Z,94620.84
2022-10-05T16:02:47.019Z,94620.22
2022-10-05T16:06:09.114Z,94622.69
2022-10-05T16:09:14.543Z,94625.94
2022-10-05T16:12:06.442Z,94624.66
2022-10-05T16:14:41.886Z,94634.38
2022-10-05T16:17:28.135Z,94634.22
2022-10-05T16:20:52.894Z,94644.34
2022-10-05T16:23:41.180Z,94635.75
2022-10-05T16:26:21.718Z,94636.53
2022-10-05T16:29:14.646Z,94639.59
2022-10-05T16:32:32.375Z,94644.09
2022-10-05T16:35:15.837Z,94638.03
2022-10-05T16:38:16.664Z,94639.50
2022-10-05T16:41:25.326Z,94640.38
2022-10-05T16:43:53.778Z,94646.28
2022-10-05T16:46:52.389Z,94659.28
2022-10-05T16:49:21.836Z,94667.44
2022-10-05T16:52:01.922Z,94663.53
2022-10-05T16:54:30.326Z,94666.16
2022-10-05T16:57:13.497Z,94673.88
2022-10-05T17:00:06.125Z,94672.28
2022-10-05T17:02:37.728Z,94680.63
2022-10-05T17:05:21.381Z,94683.25
2022-10-05T17:07:56.482Z,94692.84
2022-10-05T17:10:24.997Z,94691.44
2022-10-05T17:13:18.454Z,94691.56
2022-10-05T17:16:13.451Z,94699.53
2022-10-05T17:19:03.442Z,94695.06
2022-10-05T17:22:10.216Z,94704.84
2022-10-05T17:25:23.414Z,94711.22
2022-10-05T17:28:16.255Z,94716.72
2022-10-05T17:31:22.596Z,94718.97
2022-10-05T17:34:19.280Z,94696.06
2022-10-05T17:37:39.723Z,94700.53
2022-10-05T17:40:46.974Z,94694.63
2022-10-05T17:43:18.364Z,94693.69
2022-10-05T17:45:47.242Z,94688.59
2022-10-05T17:48:44.651Z,94688.59
2022-10-05T17:51:36.032Z,94688.38
2022-10-05T17:54:48.197Z,94694.03
2022-10-05T17:57:28.449Z,94698.72
2022-10-05T17:59:58.052Z,94696.28
2022-10-05T18:02:32.683Z,94698.13
2022-10-05T18:05:13.475Z,94717.50
2022-10-05T18:07:50.010Z,94705.09
2022-10-05T18:10:30.844Z,94708.53
2022-10-05T18:13:02.404Z,94700.59
2022-10-05T18:15:31.833Z,94705.69
2022-10-05T18:18:33.554Z,94710.16
2022-10-05T18:21:16.679Z,94722.78
2022-10-05T18:23:59.843Z,94717.28
2022-10-05T18:27:00.908Z,94734.19
2022-10-05T18:29:52.910Z,94727.25
2022-10-05T18:32:39.960Z,94717.28
2022-10-05T18:35:21.679Z,94717.91
2022-10-05T18:38:00.510Z,94718.47
2022-10-05T18:40:54.812Z,94714.63
2022-10-05T18:43:33.033Z,94710.97
2022-10-05T18:46:10.590Z,94722.53
2022-10-05T18:49:17.367Z,94720.88
2022-10-05T18:52:02.044Z,94726.19
2022-10-05T18:54:33.255Z,94737.75
2022-10-05T18:57:29.087Z,94732.31
2022-10-05T19:00:14.882Z,94738.81
2022-10-05T19:03:09.569Z,94744.75
2022-10-05T19:05:48.815Z,94743.50
2022-10-05T19:08:35.603Z,94747.75
2022-10-05T19:11:34.590Z,94750.44
2022-10-05T19:14:19.637Z,94736.78
2022-10-05T19:17:14.289Z,94734.72
2022-10-05T19:20:18.216Z,94731.25
2022-10-05T19:22:58.272Z,94735.47
2022-10-05T19:25:48.813Z,94738.91
2022-10-05T19:28:20.811Z,94744.88
2022-10-05T19:31:15.835Z,94745.22
2022-10-05T19:34:05.527Z,94746.00
2022-10-05T19:36:59.932Z,94750.94
2022-10-05T19:39:56.559Z,94751.84
2022-10-05T19:42:47.402Z,94741.78
2022-10-05T19:45:24.320Z,94738.75
2022-10-05T19:47:55.890Z,94746.44
2022-10-05T19:50:30.528Z,94752.94
2022-10-05T19:53:08.290Z,94751.06
2022-10-05T19:55:40.863Z,94755.38
2022-10-05T19:58:23.655Z,94751.75
2022-10-05T20:01:03.448Z,94754.28
2022-10-05T20:03:34.171Z,94751.03
2022-10-05T20:06:05.466Z,94763.00
2022-10-05T20:08:46.231Z,94756.72
2022-10-05T20:11:15.844Z,94762.56
2022-10-05T20:13:47.744Z,94763.00
2022-10-05T20:16:37.604Z,94764.47
2022-10-05T20:19:52.283Z,94775.91
2022-10-05T20:22:36.370Z,94773.03
2022-10-05T20:25:32.543Z,94762.66
2022-10-05T20:28:04.451Z,94767.94
2022-10-05T20:30:35.300Z,94767.34
2022-10-05T20:33:10.286Z,94770.59
2022-10-05T20:35:38.771Z,94777.84
2022-10-05T20:38:07.401Z,94771.16
2022-10-05T20:40:36.515Z,94775.66
2022-10-05T20:43:05.053Z,94780.16
2022-10-05T20:45:33.660Z,94784.25
2022-10-05T20:48:02.675Z,94794.06
2022-10-05T20:50:33.462Z,94797.53
2022-10-05T20:53:01.913Z,94786.31
2022-10-05T20:55:32.491Z,94794.06
2022-10-05T20:58:01.351Z,94803.41
2022-10-05T21:00:49.746Z,94794.88
2022-10-05T21:03:20.676Z,94797.53
2022-10-05T21:05:49.174Z,94807.50
2022-10-05T21:08:19.089Z,94808.50
2022-10-05T21:10:47.602Z,94811.78
2022-10-05T21:13:16.032Z,94814.78
2022-10-05T21:15:45.129Z,94819.69
2022-10-05T21:18:13.670Z,94835.41
2022-10-05T21:20:41.798Z,94831.31
2022-10-05T21:23:10.381Z,94820.69
2022-10-05T21:25:39.175Z,94832.50
2022-10-05T21:28:07.537Z,94842.25
2022-10-05T21:30:36.028Z,94847.97
2022-10-05T21:33:04.670Z,94849.38
2022-10-05T21:35:32.792Z,94867.22
2022-10-05T21:38:01.270Z,94856.78
2022-10-05T21:40:29.723Z,94861.59
2022-10-05T21:42:59.006Z,94876.50
2022-10-05T21:45:29.802Z,94872.88
2022-10-05T21:47:59.249Z,94878.34
2022-10-05T21:50:27.973Z,94871.28
2022-10-05T21:52:56.385Z,94869.88
2022-10-05T21:55:24.863Z,94892.88
2022-10-05T21:57:53.593Z,94892.56
2022-10-05T22:00:22.405Z,94898.81
2022-10-05T22:02:50.994Z,94891.09
2022-10-05T22:05:19.450Z,94893.47
2022-10-05T22:07:48.036Z,94881.63
2022-10-05T22:10:16.604Z,94874.16
2022-10-05T22:12:47.660Z,94875.91
2022-10-05T22:15:16.712Z,94870.31
2022-10-05T22:17:47.254Z,94868.00
2022-10-05T22:20:16.802Z,94872.00
2022-10-05T22:22:45.236Z,94867.34
2022-10-05T22:25:13.717Z,94873.44
2022-10-05T22:27:42.460Z,94867.97
2022-10-05T22:30:11.487Z,94868.19
2022-10-05T22:32:40.001Z,94866.53
2022-10-05T22:35:11.483Z,94871.19
2022-10-05T22:37:40.346Z,94868.38
2022-10-05T22:40:10.257Z,94868.94
2022-10-05T22:42:40.421Z,94878.91
2022-10-05T22:45:10.317Z,94884.63
2022-10-05T22:47:38.856Z,94883.22
2022-10-05T22:50:07.836Z,94881.41
2022-10-05T22:52:36.474Z,94874.41
2022-10-05T22:55:05.225Z,94872.44
2022-10-05T22:57:43.683Z,94866.72
2022-10-05T23:00:13.720Z,94866.72
2022-10-05T23:02:44.596Z,94870.41
2022-10-05T23:05:18.336Z,94870.25
2022-10-05T23:07:50.645Z,94868.03
2022-10-05T23:10:20.481Z,94872.88
2022-10-05T23:13:00.715Z,94867.78
2022-10-05T23:15:29.477Z,94867.22
2022-10-05T23:17:58.812Z,94863.94
2022-10-05T23:20:27.488Z,94859.47
2022-10-05T23:22:56.060Z,94857.84
2022-10-05T23:25:24.672Z,94867.38
2022-10-05T23:27:53.342Z,94866.31
2022-10-05T23:30:21.752Z,94874.44
2022-10-05T23:32:50.273Z,94872.38
2022-10-05T23:35:18.771Z,94879.16
2022-10-05T23:37:47.265Z,94878.72
2022-10-05T23:40:16.055Z,94889.53
2022-10-05T23:42:44.616Z,94889.91
2022-10-05T23:45:14.243Z,94892.41
2022-10-05T23:47:42.941Z,94897.28
2022-10-05T23:50:11.517Z,94906.19
2022-10-05T23:52:39.989Z,94909.22
2022-10-05T23:55:08.989Z,94909.81
2022-10-05T23:57:37.465Z,94910.81
